createdAt,value
2019-02-22T00:00:03.702Z,0
2019-02-22T00:01:11.745Z,0
2019-02-22T00:02:19.818Z,0
2019-02-22T00:03:27.868Z,0
2019-02-22T00:04:35.929Z,0
2019-02-22T00:05:44.000Z,0
2019-02-22T00:06:52.028Z,0
2019-02-22T00:08:00.104Z,0
2019-02-22T00:09:08.158Z,0
2019-02-22T00:10:16.222Z,0
2019-02-22T00:11:24.275Z,0
2019-02-22T00:12:32.326Z,0
2019-02-22T00:13:40.386Z,0
2019-02-22T00:14:48.457Z,0
2019-02-22T00:15:56.555Z,0
2019-02-22T00:17:04.555Z,0
2019-02-22T00:18:12.618Z,0
2019-02-22T00:19:20.749Z,0
2019-02-22T00:20:28.727Z,0
2019-02-22T00:21:36.787Z,0
2019-02-22T00:22:44.888Z,0
2019-02-22T00:23:52.914Z,0
2019-02-22T00:25:00.954Z,0
2019-02-22T00:26:10.954Z,0
2019-02-22T00:27:17.073Z,0
2019-02-22T00:28:25.139Z,0
2019-02-22T00:29:33.179Z,0
2019-02-22T00:30:41.239Z,0
2019-02-22T00:31:49.303Z,0
2019-02-22T00:32:57.358Z,0
2019-02-22T00:34:05.449Z,0
2019-02-22T00:35:13.539Z,0
2019-02-22T00:36:21.494Z,0
2019-02-22T00:37:29.592Z,0
2019-02-22T00:38:37.650Z,0
2019-02-22T00:39:45.701Z,0
2019-02-22T00:40:53.767Z,0
2019-02-22T00:42:01.803Z,0
2019-02-22T00:43:09.866Z,0
2019-02-22T00:44:17.924Z,0
2019-02-22T00:45:25.989Z,0
2019-02-22T00:46:34.047Z,0
2019-02-22T00:47:42.065Z,0
2019-02-22T00:48:50.166Z,0
2019-02-22T00:49:58.226Z,0
2019-02-22T00:51:06.280Z,0
2019-02-22T00:52:16.371Z,0
2019-02-22T00:53:26.410Z,0
2019-02-22T00:54:32.433Z,0
2019-02-22T00:55:40.484Z,0
2019-02-22T00:56:48.548Z,0
2019-02-22T00:57:56.613Z,0
2019-02-22T00:59:04.670Z,0
2019-02-22T01:00:12.736Z,0
2019-02-22T01:01:20.783Z,0
2019-02-22T01:02:28.847Z,0
2019-02-22T01:03:36.888Z,0
2019-02-22T01:04:44.958Z,0
2019-02-22T01:05:53.059Z,0
2019-02-22T01:07:01.085Z,0
2019-02-22T01:08:09.133Z,0
2019-02-22T01:09:17.190Z,0
2019-02-22T01:10:30.967Z,0
2019-02-22T01:11:33.293Z,0
2019-02-22T01:12:41.348Z,0
2019-02-22T01:13:49.413Z,0
2019-02-22T01:14:57.453Z,0
2019-02-22T01:16:05.524Z,0
2019-02-22T01:17:13.586Z,0
2019-02-22T01:18:21.634Z,0
2019-02-22T01:19:29.690Z,0
2019-02-22T01:20:37.746Z,0
2019-02-22T01:21:45.807Z,0
2019-02-22T01:22:53.868Z,0
2019-02-22T01:24:01.906Z,0
2019-02-22T01:25:09.996Z,0
2019-02-22T01:26:18.048Z,0
2019-02-22T01:27:26.141Z,0
2019-02-22T01:28:34.145Z,0
2019-02-22T01:29:42.172Z,0
2019-02-22T01:30:50.258Z,0
2019-02-22T01:31:58.321Z,0
2019-02-22T01:33:06.378Z,0
2019-02-22T01:34:14.455Z,0
2019-02-22T01:35:22.480Z,0
2019-02-22T01:36:30.558Z,0
2019-02-22T01:37:38.606Z,0
2019-02-22T01:38:46.662Z,0
2019-02-22T01:39:54.700Z,0
2019-02-22T01:41:02.787Z,0
2019-02-22T01:42:10.816Z,0
2019-02-22T01:43:18.891Z,0
2019-02-22T01:44:26.941Z,0
2019-02-22T01:45:35.002Z,0
2019-02-22T01:46:43.064Z,0
2019-02-22T01:47:51.110Z,0
2019-02-22T01:48:59.160Z,0
2019-02-22T01:50:07.228Z,0
2019-02-22T01:51:15.274Z,0
2019-02-22T01:52:23.331Z,0
2019-02-22T01:53:31.362Z,0
2019-02-22T01:54:39.452Z,0
2019-02-22T01:55:47.507Z,0
2019-02-22T01:56:56.636Z,0
2019-02-22T01:58:03.617Z,0
2019-02-22T01:59:11.666Z,0
2019-02-22T02:00:19.732Z,0
2019-02-22T02:01:27.788Z,0
2019-02-22T02:02:35.914Z,0
2019-02-22T02:03:43.900Z,0
2019-02-22T02:04:51.921Z,0
2019-02-22T02:06:00.027Z,0
2019-02-22T02:07:08.136Z,0
2019-02-22T02:08:16.156Z,0
2019-02-22T02:09:24.190Z,0
2019-02-22T02:10:32.208Z,0
2019-02-22T02:11:40.298Z,0
2019-02-22T02:12:48.353Z,0
2019-02-22T02:13:56.400Z,0
2019-02-22T02:15:04.482Z,0
2019-02-22T02:16:12.510Z,0
2019-02-22T02:17:20.584Z,0
2019-02-22T02:18:28.639Z,0
2019-02-22T02:19:36.690Z,0
2019-02-22T02:20:44.800Z,0
2019-02-22T02:21:52.848Z,0
2019-02-22T02:23:00.869Z,0
2019-02-22T02:24:08.906Z,0
2019-02-22T02:25:16.964Z,0
2019-02-22T02:26:25.034Z,0
2019-02-22T02:27:33.098Z,0
2019-02-22T02:28:41.133Z,0
2019-02-22T02:29:49.194Z,0
2019-02-22T02:30:57.260Z,0
2019-02-22T02:32:05.306Z,0
2019-02-22T02:33:13.377Z,0
2019-02-22T02:34:21.399Z,0
2019-02-22T02:35:29.489Z,0
2019-02-22T02:36:37.546Z,0
2019-02-22T02:37:45.595Z,0
2019-02-22T02:38:53.656Z,0
2019-02-22T02:40:01.717Z,0
2019-02-22T02:41:11.346Z,0
2019-02-22T02:42:17.825Z,0
2019-02-22T02:43:25.878Z,0
2019-02-22T02:44:33.938Z,0
2019-02-22T02:45:41.972Z,0
2019-02-22T02:46:50.051Z,0
2019-02-22T02:47:58.113Z,0
2019-02-22T02:49:06.174Z,0
2019-02-22T02:50:14.239Z,0
2019-02-22T02:51:22.406Z,0
2019-02-22T02:52:30.434Z,0
2019-02-22T02:53:38.404Z,0
2019-02-22T02:54:46.458Z,0
2019-02-22T02:55:54.515Z,0
2019-02-22T02:57:02.588Z,0
2019-02-22T02:58:10.624Z,0
2019-02-22T02:59:18.686Z,0
2019-02-22T03:00:26.758Z,0
2019-02-22T03:01:34.807Z,0
2019-02-22T03:02:42.860Z,0
2019-02-22T03:03:50.904Z,0
2019-02-22T03:04:58.964Z,0
2019-02-22T03:06:07.032Z,0
2019-02-22T03:07:15.089Z,0
2019-02-22T03:08:23.142Z,0
2019-02-22T03:09:31.205Z,0
2019-02-22T03:10:39.253Z,0
2019-02-22T03:11:47.323Z,0
2019-02-22T03:12:55.363Z,0
2019-02-22T03:14:03.431Z,0
2019-02-22T03:15:11.459Z,0
2019-02-22T03:16:19.545Z,0
2019-02-22T03:17:27.598Z,0
2019-02-22T03:18:35.693Z,0
2019-02-22T03:19:43.710Z,0
2019-02-22T03:20:51.752Z,0
2019-02-22T03:21:59.808Z,0
2019-02-22T03:23:07.893Z,0
2019-02-22T03:24:15.927Z,0
2019-02-22T03:25:24.004Z,0
2019-02-22T03:26:32.033Z,0
2019-02-22T03:27:40.185Z,0
2019-02-22T03:28:48.180Z,0
2019-02-22T03:29:56.234Z,0
2019-02-22T03:31:04.289Z,0
2019-02-22T03:32:12.322Z,0
2019-02-22T03:33:20.404Z,0
2019-02-22T03:34:28.472Z,0
2019-02-22T03:35:36.530Z,0
2019-02-22T03:36:44.581Z,0
2019-02-22T03:37:52.644Z,0
2019-02-22T03:39:00.703Z,0
2019-02-22T03:40:08.746Z,0
2019-02-22T03:41:16.800Z,0
2019-02-22T03:42:24.866Z,0
2019-02-22T03:43:32.937Z,0
2019-02-22T03:44:41.022Z,0
2019-02-22T03:45:49.041Z,0
2019-02-22T03:46:57.092Z,0
2019-02-22T03:48:05.170Z,0
2019-02-22T03:49:13.204Z,0
2019-02-22T03:50:21.256Z,0
2019-02-22T03:51:29.334Z,0
2019-02-22T03:52:37.402Z,0
2019-02-22T03:53:45.421Z,0
2019-02-22T03:54:53.509Z,0
2019-02-22T03:56:01.528Z,0
2019-02-22T03:57:09.624Z,0
2019-02-22T03:58:17.666Z,0
2019-02-22T03:59:25.730Z,0
2019-02-22T04:00:33.792Z,0
2019-02-22T04:01:41.812Z,0
2019-02-22T04:02:49.911Z,0
2019-02-22T04:03:57.957Z,0
2019-02-22T04:05:06.048Z,0
2019-02-22T04:06:14.084Z,0
2019-02-22T04:07:22.106Z,0
2019-02-22T04:08:30.187Z,0
2019-02-22T04:09:38.244Z,0
2019-02-22T04:10:46.305Z,0
2019-02-22T04:11:54.367Z,0
2019-02-22T04:13:02.396Z,0
2019-02-22T04:14:10.474Z,0
2019-02-22T04:15:18.550Z,0
2019-02-22T04:16:26.590Z,0
2019-02-22T04:17:34.652Z,0
2019-02-22T04:18:42.716Z,0
2019-02-22T04:19:50.763Z,0
2019-02-22T04:20:58.818Z,0
2019-02-22T04:22:06.875Z,0
2019-02-22T04:23:14.928Z,0
2019-02-22T04:24:23.001Z,0
2019-02-22T04:25:31.055Z,0
2019-02-22T04:26:39.096Z,0
2019-02-22T04:27:47.163Z,0
2019-02-22T04:28:55.236Z,0
2019-02-22T04:30:03.279Z,0
2019-02-22T04:31:11.337Z,0
2019-02-22T04:32:19.395Z,0
2019-02-22T04:33:27.455Z,0
2019-02-22T04:34:35.516Z,0
2019-02-22T04:35:43.570Z,0
2019-02-22T04:36:51.594Z,0
2019-02-22T04:37:59.678Z,0
2019-02-22T04:39:07.735Z,0
2019-02-22T04:40:15.804Z,0
2019-02-22T04:41:23.848Z,0
2019-02-22T04:42:31.897Z,0
2019-02-22T04:43:39.976Z,0
2019-02-22T04:44:48.031Z,0
2019-02-22T04:45:56.088Z,0
2019-02-22T04:47:04.153Z,0
2019-02-22T04:48:12.225Z,0
2019-02-22T04:49:20.258Z,0
2019-02-22T04:50:28.316Z,0
2019-02-22T04:51:36.380Z,0
2019-02-22T04:52:44.429Z,0
2019-02-22T04:53:52.487Z,0
2019-02-22T04:55:00.538Z,0
2019-02-22T04:56:08.606Z,0
2019-02-22T04:57:16.661Z,0
2019-02-22T04:58:24.724Z,0
2019-02-22T04:59:32.772Z,0
2019-02-22T05:00:40.838Z,0
2019-02-22T05:01:48.926Z,0
2019-02-22T05:02:56.936Z,0
2019-02-22T05:04:05.001Z,0
2019-02-22T05:05:13.065Z,0
2019-02-22T05:06:21.117Z,0
2019-02-22T05:07:29.166Z,0
2019-02-22T05:08:37.228Z,0
2019-02-22T05:09:45.292Z,0
2019-02-22T05:10:53.339Z,0
2019-02-22T05:12:10.284Z,0
2019-02-22T05:13:09.457Z,0
2019-02-22T05:14:17.628Z,0
2019-02-22T05:15:25.572Z,0
2019-02-22T05:16:33.618Z,0
2019-02-22T05:17:41.657Z,0
2019-02-22T05:18:49.757Z,0
2019-02-22T05:19:57.799Z,0
2019-02-22T05:21:05.848Z,0
2019-02-22T05:22:13.913Z,0
2019-02-22T05:23:21.945Z,0
2019-02-22T05:24:30.031Z,0
2019-02-22T05:25:38.144Z,0
2019-02-22T05:26:46.132Z,0
2019-02-22T05:27:54.201Z,0
2019-02-22T05:29:02.229Z,0
2019-02-22T05:30:10.310Z,0
2019-02-22T05:31:18.370Z,0
2019-02-22T05:32:26.430Z,0
2019-02-22T05:33:34.473Z,0
2019-02-22T05:34:42.535Z,0
2019-02-22T05:35:50.594Z,0
2019-02-22T05:36:58.648Z,0
2019-02-22T05:38:06.714Z,0
2019-02-22T05:39:18.799Z,0
2019-02-22T05:40:22.819Z,0
2019-02-22T05:41:31.245Z,0
2019-02-22T05:42:39.056Z,0
2019-02-22T05:43:47.065Z,0
2019-02-22T05:44:55.031Z,0
2019-02-22T05:46:03.110Z,0
2019-02-22T05:47:11.148Z,0
2019-02-22T05:48:19.209Z,0
2019-02-22T05:49:27.271Z,0
2019-02-22T05:50:35.324Z,0
2019-02-22T05:51:43.379Z,0
2019-02-22T05:52:51.396Z,0
2019-02-22T05:53:59.505Z,0
2019-02-22T05:55:07.557Z,0
2019-02-22T05:56:15.952Z,0
2019-02-22T05:57:23.663Z,0
2019-02-22T05:58:31.700Z,0
2019-02-22T05:59:39.749Z,0
2019-02-22T06:00:47.828Z,0
2019-02-22T06:01:55.884Z,0
2019-02-22T06:03:04.798Z,0
2019-02-22T06:04:11.980Z,0
2019-02-22T06:05:20.060Z,0
2019-02-22T06:06:28.130Z,0
2019-02-22T06:07:36.276Z,0
2019-02-22T06:08:44.268Z,0
2019-02-22T06:09:52.269Z,0
2019-02-22T06:11:00.338Z,0
2019-02-22T06:12:08.439Z,0
2019-02-22T06:13:16.459Z,0
2019-02-22T06:14:24.518Z,0
2019-02-22T06:15:32.586Z,5
2019-02-22T06:16:40.635Z,5
2019-02-22T06:17:48.680Z,5
2019-02-22T06:18:57.045Z,5
2019-02-22T06:20:04.798Z,5
2019-02-22T06:21:15.225Z,5
2019-02-22T06:22:28.929Z,10
2019-02-22T06:23:28.973Z,10
2019-02-22T06:24:37.032Z,10
2019-02-22T06:25:45.077Z,10
2019-02-22T06:26:53.134Z,10
2019-02-22T06:28:01.194Z,10
2019-02-22T06:29:09.241Z,15
2019-02-22T06:30:17.356Z,15
2019-02-22T06:31:25.375Z,15
2019-02-22T06:32:33.421Z,15
2019-02-22T06:33:41.471Z,15
2019-02-22T06:34:49.554Z,15
2019-02-22T06:35:57.592Z,15
2019-02-22T06:37:05.646Z,15
2019-02-22T06:38:13.717Z,15
2019-02-22T06:39:21.779Z,15
2019-02-22T06:40:29.848Z,15
2019-02-22T06:41:37.880Z,15
2019-02-22T06:42:46.230Z,15
2019-02-22T06:43:53.994Z,20
2019-02-22T06:45:02.030Z,20
2019-02-22T06:46:10.112Z,20
2019-02-22T06:47:18.195Z,20
2019-02-22T06:48:26.233Z,20
2019-02-22T06:49:34.301Z,25
2019-02-22T06:50:42.325Z,25
2019-02-22T06:51:50.636Z,25
2019-02-22T06:52:58.449Z,25
2019-02-22T06:54:06.508Z,25
2019-02-22T06:55:14.565Z,20
2019-02-22T06:56:24.242Z,20
2019-02-22T06:57:30.679Z,25
2019-02-22T06:58:38.730Z,30
2019-02-22T06:59:46.816Z,35
2019-02-22T07:00:54.864Z,35
2019-02-22T07:02:02.917Z,40
2019-02-22T07:03:10.992Z,35
2019-02-22T07:04:19.024Z,40
2019-02-22T07:05:27.094Z,40
2019-02-22T07:06:35.144Z,40
2019-02-22T07:07:43.198Z,35
2019-02-22T07:08:51.244Z,35
2019-02-22T07:09:59.312Z,35
2019-02-22T07:11:07.362Z,40
2019-02-22T07:12:15.419Z,45
2019-02-22T07:13:24.446Z,45
2019-02-22T07:14:31.522Z,50
2019-02-22T07:15:39.603Z,45
2019-02-22T07:16:47.649Z,45
2019-02-22T07:17:55.704Z,45
2019-02-22T07:19:03.766Z,40
2019-02-22T07:20:11.801Z,40
2019-02-22T07:21:19.882Z,45
2019-02-22T07:22:27.930Z,55
2019-02-22T07:23:36.006Z,65
2019-02-22T07:24:44.058Z,55
2019-02-22T07:25:52.086Z,45
2019-02-22T07:27:00.162Z,40
2019-02-22T07:28:08.229Z,35
2019-02-22T07:29:16.291Z,35
2019-02-22T07:30:24.362Z,35
2019-02-22T07:31:32.382Z,35
2019-02-22T07:32:40.542Z,35
2019-02-22T07:33:48.519Z,45
2019-02-22T07:34:56.572Z,45
2019-02-22T07:36:04.650Z,50
2019-02-22T07:37:12.706Z,55
2019-02-22T07:38:20.759Z,55
2019-02-22T07:39:28.814Z,55
2019-02-22T07:40:36.862Z,55
2019-02-22T07:41:44.924Z,50
2019-02-22T07:42:52.971Z,55
2019-02-22T07:44:01.039Z,60
2019-02-22T07:45:09.114Z,65
2019-02-22T07:46:17.145Z,70
2019-02-22T07:47:25.202Z,75
2019-02-22T07:48:33.280Z,65
2019-02-22T07:49:41.325Z,55
2019-02-22T07:50:57.237Z,55
2019-02-22T07:51:57.443Z,60
2019-02-22T07:53:05.506Z,65
2019-02-22T07:54:13.563Z,60
2019-02-22T07:55:21.594Z,60
2019-02-22T07:56:29.683Z,70
2019-02-22T07:57:39.958Z,70
2019-02-22T07:58:45.871Z,80
2019-02-22T07:59:54.728Z,85
2019-02-22T08:01:01.910Z,90
2019-02-22T08:02:09.959Z,90
2019-02-22T08:03:18.034Z,80
2019-02-22T08:04:26.094Z,85
2019-02-22T08:05:34.149Z,80
2019-02-22T08:06:42.474Z,55
2019-02-22T08:07:50.269Z,55
2019-02-22T08:08:58.328Z,60
2019-02-22T08:10:06.382Z,60
2019-02-22T08:11:14.432Z,55
2019-02-22T08:12:22.495Z,45
2019-02-22T08:13:30.555Z,45
2019-02-22T08:14:38.619Z,55
2019-02-22T08:15:46.679Z,65
2019-02-22T08:16:54.761Z,70
2019-02-22T08:18:02.837Z,80
2019-02-22T08:19:11.322Z,85
2019-02-22T08:20:18.909Z,95
2019-02-22T08:21:26.973Z,105
2019-02-22T08:22:35.024Z,90
2019-02-22T08:23:43.089Z,70
2019-02-22T08:24:51.143Z,75
2019-02-22T08:25:59.203Z,85
2019-02-22T08:27:07.251Z,115
2019-02-22T08:28:15.316Z,120
2019-02-22T08:29:23.386Z,105
2019-02-22T08:30:31.429Z,105
2019-02-22T08:31:39.498Z,150
2019-02-22T08:32:47.541Z,165
2019-02-22T08:33:57.147Z,155
2019-02-22T08:35:03.671Z,140
2019-02-22T08:36:11.694Z,140
2019-02-22T08:37:19.793Z,135
2019-02-22T08:38:27.843Z,125
2019-02-22T08:39:35.891Z,125
2019-02-22T08:40:43.982Z,115
2019-02-22T08:41:52.026Z,125
2019-02-22T08:43:00.093Z,150
2019-02-22T08:44:08.136Z,180
2019-02-22T08:45:16.210Z,190
2019-02-22T08:46:24.262Z,160
2019-02-22T08:47:32.295Z,175
2019-02-22T08:48:40.387Z,200
2019-02-22T08:49:48.438Z,230
2019-02-22T08:50:56.501Z,265
2019-02-22T08:52:04.567Z,260
2019-02-22T08:53:12.608Z,255
2019-02-22T08:54:20.768Z,295
2019-02-22T08:55:28.723Z,290
2019-02-22T08:56:36.808Z,320
2019-02-22T08:57:44.860Z,310
2019-02-22T08:58:52.928Z,300
2019-02-22T09:00:00.996Z,265
2019-02-22T09:01:09.041Z,250
2019-02-22T09:02:17.120Z,270
2019-02-22T09:03:25.182Z,310
2019-02-22T09:04:33.243Z,310
2019-02-22T09:05:41.407Z,295
2019-02-22T09:06:49.324Z,340
2019-02-22T09:07:57.391Z,350
2019-02-22T09:09:05.457Z,315
2019-02-22T09:10:13.518Z,315
2019-02-22T09:11:21.571Z,320
2019-02-22T09:12:29.751Z,315
2019-02-22T09:13:43.329Z,310
2019-02-22T09:14:45.762Z,315
2019-02-22T09:15:53.828Z,310
2019-02-22T09:17:01.855Z,305
2019-02-22T09:18:09.945Z,305
2019-02-22T09:19:18.007Z,295
2019-02-22T09:20:26.049Z,250
2019-02-22T09:21:34.120Z,260
2019-02-22T09:22:42.151Z,280
2019-02-22T09:23:50.259Z,260
2019-02-22T09:24:58.310Z,240
2019-02-22T09:26:06.373Z,275
2019-02-22T09:27:14.432Z,285
2019-02-22T09:28:22.478Z,290
2019-02-22T09:29:30.561Z,275
2019-02-22T09:30:38.633Z,255
2019-02-22T09:31:46.665Z,250
2019-02-22T09:32:54.726Z,245
2019-02-22T09:34:02.791Z,245
2019-02-22T09:35:10.867Z,250
2019-02-22T09:36:18.924Z,265
2019-02-22T09:37:26.970Z,275
2019-02-22T09:38:35.032Z,270
2019-02-22T09:39:43.089Z,280
2019-02-22T09:40:51.166Z,300
2019-02-22T09:41:59.241Z,305
2019-02-22T09:43:07.292Z,295
2019-02-22T09:44:15.329Z,270
2019-02-22T09:45:24.510Z,245
2019-02-22T09:46:31.475Z,240
2019-02-22T09:47:39.526Z,240
2019-02-22T09:48:47.593Z,250
2019-02-22T09:49:55.649Z,255
2019-02-22T09:51:03.706Z,255
2019-02-22T09:52:11.745Z,255
2019-02-22T09:53:19.860Z,250
2019-02-22T09:54:27.895Z,250
2019-02-22T09:55:35.949Z,250
2019-02-22T09:56:44.022Z,235
2019-02-22T09:57:52.049Z,220
2019-02-22T09:59:00.126Z,220
2019-02-22T10:00:08.201Z,210
2019-02-22T10:01:16.248Z,195
2019-02-22T10:02:24.327Z,185
2019-02-22T10:03:32.375Z,185
2019-02-22T10:04:40.436Z,185
2019-02-22T10:05:48.503Z,180
2019-02-22T10:06:56.544Z,190
2019-02-22T10:08:04.623Z,215
2019-02-22T10:09:12.686Z,240
2019-02-22T10:10:20.771Z,270
2019-02-22T10:11:28.810Z,295
2019-02-22T10:12:36.864Z,315
2019-02-22T10:13:44.927Z,330
2019-02-22T10:14:52.986Z,335
2019-02-22T10:16:01.060Z,335
2019-02-22T10:17:09.106Z,325
2019-02-22T10:18:17.174Z,320
2019-02-22T10:19:25.231Z,310
2019-02-22T10:20:33.315Z,295
2019-02-22T10:21:41.342Z,295
2019-02-22T10:22:49.421Z,295
2019-02-22T10:23:57.485Z,295
2019-02-22T10:25:05.538Z,295
2019-02-22T10:26:13.602Z,290
2019-02-22T10:27:21.640Z,315
2019-02-22T10:28:29.717Z,335
2019-02-22T10:29:37.786Z,355
2019-02-22T10:30:45.830Z,365
2019-02-22T10:31:53.916Z,375
2019-02-22T10:33:01.949Z,370
2019-02-22T10:34:10.036Z,360
2019-02-22T10:35:18.095Z,360
2019-02-22T10:36:26.164Z,365
2019-02-22T10:37:34.208Z,345
2019-02-22T10:38:42.301Z,350
2019-02-22T10:39:50.331Z,355
2019-02-22T10:40:58.396Z,385
2019-02-22T10:42:06.471Z,395
2019-02-22T10:43:14.523Z,390
2019-02-22T10:44:22.622Z,380
2019-02-22T10:45:30.676Z,380
2019-02-22T10:46:38.713Z,390
2019-02-22T10:47:46.775Z,390
2019-02-22T10:48:54.838Z,375
2019-02-22T10:50:02.912Z,370
2019-02-22T10:51:10.959Z,360
2019-02-22T10:52:19.036Z,340
2019-02-22T10:53:27.088Z,340
2019-02-22T10:54:35.169Z,340
2019-02-22T10:55:43.210Z,370
2019-02-22T10:56:51.276Z,395
2019-02-22T10:57:59.334Z,425
2019-02-22T10:59:07.403Z,445
2019-02-22T11:00:15.455Z,445
2019-02-22T11:01:23.532Z,460
2019-02-22T11:02:31.595Z,470
2019-02-22T11:03:39.668Z,480
2019-02-22T11:04:47.709Z,440
2019-02-22T11:05:55.902Z,430
2019-02-22T11:07:03.829Z,435
2019-02-22T11:08:11.865Z,435
2019-02-22T11:09:19.956Z,405
2019-02-22T11:10:28.032Z,395
2019-02-22T11:11:36.093Z,350
2019-02-22T11:12:44.140Z,350
2019-02-22T11:13:52.232Z,325
2019-02-22T11:15:00.343Z,300
2019-02-22T11:16:08.329Z,285
2019-02-22T11:17:16.400Z,260
2019-02-22T11:18:24.467Z,240
2019-02-22T11:19:32.573Z,235
2019-02-22T11:20:40.623Z,285
2019-02-22T11:21:48.632Z,245
2019-02-22T11:22:56.721Z,290
2019-02-22T11:24:04.774Z,305
2019-02-22T11:25:12.870Z,300
2019-02-22T11:26:20.914Z,350
2019-02-22T11:27:28.970Z,345
2019-02-22T11:28:37.051Z,335
2019-02-22T11:29:45.087Z,345
2019-02-22T11:30:53.161Z,325
2019-02-22T11:32:01.222Z,315
2019-02-22T11:33:09.285Z,365
2019-02-22T11:34:17.389Z,385
2019-02-22T11:35:25.434Z,370
2019-02-22T11:36:33.471Z,345
2019-02-22T11:37:41.524Z,355
2019-02-22T11:38:49.601Z,385
2019-02-22T11:39:57.657Z,400
2019-02-22T11:41:05.731Z,395
2019-02-22T11:42:13.804Z,410
2019-02-22T11:43:21.815Z,415
2019-02-22T11:44:39.578Z,420
2019-02-22T11:45:37.975Z,415
2019-02-22T11:46:46.042Z,410
2019-02-22T11:47:54.103Z,405
2019-02-22T11:49:02.130Z,395
2019-02-22T11:50:10.227Z,375
2019-02-22T11:51:18.292Z,350
2019-02-22T11:52:26.354Z,320
2019-02-22T11:53:34.411Z,340
2019-02-22T11:54:42.481Z,375
2019-02-22T11:55:50.542Z,435
2019-02-22T11:56:58.607Z,465
2019-02-22T11:58:06.662Z,450
2019-02-22T11:59:14.728Z,390
2019-02-22T12:00:22.804Z,390
2019-02-22T12:01:30.843Z,395
2019-02-22T12:02:38.929Z,385
2019-02-22T12:03:47.081Z,360
2019-02-22T12:04:55.058Z,325
2019-02-22T12:06:03.113Z,325
2019-02-22T12:07:11.172Z,350
2019-02-22T12:08:19.280Z,375
2019-02-22T12:09:27.324Z,385
2019-02-22T12:10:35.364Z,380
2019-02-22T12:11:43.436Z,365
2019-02-22T12:12:51.499Z,360
2019-02-22T12:13:59.572Z,365
2019-02-22T12:15:07.639Z,375
2019-02-22T12:16:15.681Z,360
2019-02-22T12:17:23.738Z,355
2019-02-22T12:18:31.796Z,370
2019-02-22T12:19:39.884Z,365
2019-02-22T12:20:48.215Z,370
2019-02-22T12:21:56.017Z,335
2019-02-22T12:23:04.064Z,335
2019-02-22T12:24:12.147Z,310
2019-02-22T12:25:20.193Z,305
2019-02-22T12:26:28.243Z,280
2019-02-22T12:27:36.323Z,300
2019-02-22T12:28:44.387Z,305
2019-02-22T12:29:52.433Z,290
2019-02-22T12:31:00.533Z,280
2019-02-22T12:32:08.582Z,245
2019-02-22T12:33:16.634Z,205
2019-02-22T12:34:24.711Z,185
2019-02-22T12:35:32.762Z,185
2019-02-22T12:36:40.822Z,205
2019-02-22T12:37:48.884Z,245
2019-02-22T12:38:56.941Z,280
2019-02-22T12:40:05.062Z,295
2019-02-22T12:41:13.112Z,300
2019-02-22T12:42:21.165Z,310
2019-02-22T12:43:29.208Z,335
2019-02-22T12:44:37.255Z,375
2019-02-22T12:45:45.331Z,390
2019-02-22T12:46:53.387Z,430
2019-02-22T12:48:01.449Z,425
2019-02-22T12:49:09.506Z,440
2019-02-22T12:50:17.591Z,440
2019-02-22T12:51:25.644Z,415
2019-02-22T12:52:33.706Z,405
2019-02-22T12:53:41.743Z,390
2019-02-22T12:54:49.871Z,405
2019-02-22T12:55:57.920Z,405
2019-02-22T12:57:05.941Z,370
2019-02-22T12:58:14.016Z,360
2019-02-22T12:59:22.064Z,355
2019-02-22T13:00:30.139Z,375
2019-02-22T13:01:38.206Z,360
2019-02-22T13:02:46.279Z,330
2019-02-22T13:03:54.334Z,310
2019-02-22T13:05:02.409Z,295
2019-02-22T13:06:10.459Z,295
2019-02-22T13:07:18.529Z,300
2019-02-22T13:08:26.608Z,305
2019-02-22T13:09:36.828Z,320
2019-02-22T13:10:42.729Z,300
2019-02-22T13:11:50.788Z,325
2019-02-22T13:12:58.864Z,340
2019-02-22T13:14:06.926Z,345
2019-02-22T13:15:14.988Z,345
2019-02-22T13:16:23.083Z,330
2019-02-22T13:17:31.280Z,340
2019-02-22T13:18:39.169Z,355
2019-02-22T13:19:47.234Z,340
2019-02-22T13:20:55.296Z,315
2019-02-22T13:22:03.346Z,285
2019-02-22T13:23:11.395Z,260
2019-02-22T13:24:19.472Z,270
2019-02-22T13:25:27.535Z,275
2019-02-22T13:26:35.617Z,270
2019-02-22T13:27:43.692Z,260
2019-02-22T13:28:52.018Z,255
2019-02-22T13:29:59.788Z,255
2019-02-22T13:31:07.844Z,260
2019-02-22T13:32:15.917Z,265
2019-02-22T13:33:23.986Z,275
2019-02-22T13:34:32.032Z,285
2019-02-22T13:35:40.117Z,290
2019-02-22T13:36:48.149Z,290
2019-02-22T13:37:56.229Z,285
2019-02-22T13:39:04.304Z,280
2019-02-22T13:40:12.347Z,275
2019-02-22T13:41:20.428Z,280
2019-02-22T13:42:28.597Z,270
2019-02-22T13:43:36.535Z,270
2019-02-22T13:44:44.612Z,270
2019-02-22T13:45:52.660Z,250
2019-02-22T13:47:00.720Z,220
2019-02-22T13:48:08.801Z,200
2019-02-22T13:49:16.845Z,185
2019-02-22T13:50:24.902Z,170
2019-02-22T13:51:34.004Z,155
2019-02-22T13:52:41.043Z,145
2019-02-22T13:53:49.105Z,140
2019-02-22T13:54:57.162Z,135
2019-02-22T13:56:05.223Z,130
2019-02-22T13:57:13.293Z,130
2019-02-22T13:58:21.342Z,130
2019-02-22T13:59:29.423Z,135
2019-02-22T14:00:37.464Z,135
2019-02-22T14:01:45.535Z,140
2019-02-22T14:02:53.617Z,145
2019-02-22T14:04:01.622Z,150
2019-02-22T14:05:09.862Z,150
2019-02-22T14:06:17.763Z,150
2019-02-22T14:07:25.831Z,160
2019-02-22T14:08:33.907Z,165
2019-02-22T14:09:41.934Z,170
2019-02-22T14:10:50.026Z,175
2019-02-22T14:11:58.093Z,180
2019-02-22T14:13:06.132Z,175
2019-02-22T14:14:14.205Z,180
2019-02-22T14:15:22.243Z,170
2019-02-22T14:16:30.316Z,160
2019-02-22T14:17:38.382Z,155
2019-02-22T14:18:46.429Z,155
2019-02-22T14:19:54.511Z,150
2019-02-22T14:21:02.599Z,145
2019-02-22T14:22:10.625Z,145
2019-02-22T14:23:18.701Z,135
2019-02-22T14:24:26.742Z,140
2019-02-22T14:25:34.815Z,145
2019-02-22T14:26:42.873Z,145
2019-02-22T14:27:50.929Z,150
2019-02-22T14:28:58.998Z,150
2019-02-22T14:30:07.060Z,150
2019-02-22T14:31:15.116Z,150
2019-02-22T14:32:23.253Z,150
2019-02-22T14:33:31.224Z,145
2019-02-22T14:34:40.753Z,145
2019-02-22T14:35:47.369Z,140
2019-02-22T14:36:55.442Z,135
2019-02-22T14:38:03.637Z,130
2019-02-22T14:39:11.533Z,120
2019-02-22T14:40:19.594Z,120
2019-02-22T14:41:28.046Z,120
2019-02-22T14:42:35.736Z,125
2019-02-22T14:43:43.800Z,130
2019-02-22T14:44:51.820Z,130
2019-02-22T14:45:59.913Z,130
2019-02-22T14:47:07.963Z,130
2019-02-22T14:48:16.021Z,130
2019-02-22T14:49:24.087Z,130
2019-02-22T14:50:32.150Z,130
2019-02-22T14:51:40.233Z,130
2019-02-22T14:52:48.275Z,125
2019-02-22T14:53:56.332Z,120
2019-02-22T14:55:04.399Z,115
2019-02-22T14:56:12.435Z,115
2019-02-22T14:57:20.513Z,110
2019-02-22T14:58:28.562Z,110
2019-02-22T14:59:36.613Z,115
2019-02-22T15:00:44.686Z,115
2019-02-22T15:01:52.752Z,115
2019-02-22T15:03:00.807Z,115
2019-02-22T15:04:08.853Z,115
2019-02-22T15:05:16.921Z,115
2019-02-22T15:06:24.998Z,110
2019-02-22T15:07:33.047Z,115
2019-02-22T15:08:41.161Z,110
2019-02-22T15:09:49.206Z,105
2019-02-22T15:10:57.236Z,105
2019-02-22T15:12:05.362Z,105
2019-02-22T15:13:16.635Z,105
2019-02-22T15:14:21.385Z,105
2019-02-22T15:15:29.475Z,100
2019-02-22T15:16:38.322Z,105
2019-02-22T15:17:45.587Z,105
2019-02-22T15:18:53.644Z,105
2019-02-22T15:20:01.678Z,110
2019-02-22T15:21:09.771Z,110
2019-02-22T15:22:17.876Z,110
2019-02-22T15:23:25.891Z,110
2019-02-22T15:24:33.949Z,115
2019-02-22T15:25:41.966Z,125
2019-02-22T15:26:50.070Z,125
2019-02-22T15:27:58.127Z,120
2019-02-22T15:29:06.189Z,120
2019-02-22T15:30:14.329Z,125
2019-02-22T15:31:22.287Z,140
2019-02-22T15:32:30.390Z,155
2019-02-22T15:33:38.441Z,175
2019-02-22T15:34:46.469Z,165
2019-02-22T15:35:54.539Z,135
2019-02-22T15:37:02.590Z,85
2019-02-22T15:38:10.646Z,60
2019-02-22T15:39:18.728Z,55
2019-02-22T15:40:26.800Z,50
2019-02-22T15:41:34.838Z,40
2019-02-22T15:42:42.957Z,35
2019-02-22T15:43:50.967Z,35
2019-02-22T15:44:59.038Z,40
2019-02-22T15:46:11.990Z,40
2019-02-22T15:47:15.183Z,45
2019-02-22T15:48:23.195Z,45
2019-02-22T15:49:31.333Z,50
2019-02-22T15:50:39.315Z,60
2019-02-22T15:51:47.390Z,65
2019-02-22T15:52:55.435Z,70
2019-02-22T15:54:03.489Z,70
2019-02-22T15:55:14.105Z,75
2019-02-22T15:56:19.659Z,75
2019-02-22T15:57:27.767Z,75
2019-02-22T15:58:35.762Z,75
2019-02-22T15:59:43.825Z,70
2019-02-22T16:00:51.845Z,70
2019-02-22T16:01:59.924Z,65
2019-02-22T16:03:07.976Z,65
2019-02-22T16:04:16.039Z,65
2019-02-22T16:05:24.101Z,65
2019-02-22T16:06:32.367Z,65
2019-02-22T16:07:44.461Z,60
2019-02-22T16:08:48.271Z,55